Time;durP1;ratioP1;P1;durP2;ratioP2;P2;SDS_P1;SDS_P2;PMS_P1;PMS_P2;Temp;Humidity;BMP_temperature;BMP_pressure;BME280_temperature;BME280_humidity;BME280_pressure;Samples;Min_cycle;Max_cycle;Signal;HPM_P1;HPM_P2
2022/12/10 00:01:33;;;;;;;60.35;32.53;;;2.20;99.90;;;;;;5142020;27;20181;-77
2022/12/10 00:04:00;;;;;;;60.88;31.58;;;2.20;99.90;;;;;;5137400;27;20229;-77
2022/12/10 00:06:30;;;;;;;61.28;32.63;;;2.20;99.90;;;;;;5138019;27;20208;-76
2022/12/10 00:08:57;;;;;;;64.55;32.05;;;2.20;99.90;;;;;;5133912;27;20182;-76
2022/12/10 00:11:25;;;;;;;58.92;33.42;;;2.40;99.90;;;;;;5144082;27;20188;-76
2022/12/10 00:13:52;;;;;;;57.33;30.10;;;2.40;99.90;;;;;;5134541;27;20460;-75
2022/12/10 00:16:21;;;;;;;70.75;35.85;;;2.50;99.90;;;;;;5135605;27;20177;-76
2022/12/10 00:18:48;;;;;;;60.05;32.92;;;2.40;99.90;;;;;;5139119;27;20181;-77
2022/12/10 00:21:17;;;;;;;65.43;32.15;;;2.50;99.90;;;;;;5138001;27;20206;-77
2022/12/10 00:23:46;;;;;;;67.95;33.42;;;2.40;99.90;;;;;;5137141;27;20217;-76
2022/12/10 00:26:17;;;;;;;50.88;28.50;;;2.30;99.90;;;;;;5142097;27;20185;-76
2022/12/10 00:28:52;;;;;;;66.82;32.05;;;2.40;99.90;;;;;;5132036;27;20221;-77
2022/12/10 00:31:21;;;;;;;57.88;31.13;;;2.40;99.90;;;;;;5137262;27;20189;-77
2022/12/10 00:33:48;;;;;;;59.50;30.23;;;2.40;99.90;;;;;;5132985;27;20201;-76
2022/12/10 00:36:19;;;;;;;58.13;32.50;;;2.50;99.90;;;;;;5139157;27;20190;-75
2022/12/10 00:38:49;;;;;;;59.53;31.13;;;2.50;99.90;;;;;;5132657;27;20412;-76
2022/12/10 00:41:17;;;;;;;74.07;34.65;;;2.40;99.90;;;;;;5127838;28;20190;-76
2022/12/10 00:43:44;;;;;;;56.65;29.65;;;2.40;99.90;;;;;;5134012;27;20223;-76
2022/12/10 00:46:12;;;;;;;61.00;32.17;;;2.40;99.90;;;;;;5141400;27;20224;-76
2022/12/10 00:48:39;;;;;;;55.70;28.38;;;2.40;99.90;;;;;;5139983;27;20225;-76
2022/12/10 00:51:08;;;;;;;58.20;30.33;;;2.40;99.90;;;;;;5142242;27;20193;-74
2022/12/10 00:53:37;;;;;;;59.05;30.38;;;2.40;99.90;;;;;;5139587;27;20201;-75
2022/12/10 00:56:06;;;;;;;59.58;31.35;;;2.40;99.90;;;;;;5135894;27;20208;-77
2022/12/10 00:58:34;;;;;;;67.15;35.03;;;2.50;99.90;;;;;;5144308;27;20192;-75
2022/12/10 01:01:11;;;;;;;57.95;31.17;;;2.40;99.90;;;;;;5142350;27;20169;-78
2022/12/10 01:03:38;;;;;;;53.92;28.85;;;2.30;99.90;;;;;;5127894;28;20427;-75
2022/12/10 01:06:10;;;;;;;57.17;33.30;;;2.40;99.90;;;;;;5130651;28;20340;-77
2022/12/10 01:08:37;;;;;;;64.35;31.70;;;2.40;99.90;;;;;;5139233;27;20443;-77
2022/12/10 01:11:06;;;;;;;66.22;35.58;;;2.40;99.90;;;;;;5133048;27;20245;-77
2022/12/10 01:13:34;;;;;;;61.85;33.80;;;2.30;99.90;;;;;;5136673;27;20264;-77
2022/12/10 01:16:02;;;;;;;54.28;31.55;;;2.30;99.90;;;;;;5143185;27;20221;-76
2022/12/10 01:18:29;;;;;;;58.22;32.17;;;2.30;99.90;;;;;;5132343;27;20265;-77
2022/12/10 01:21:01;;;;;;;64.53;33.40;;;2.30;99.90;;;;;;5134700;27;20197;-76
2022/12/10 01:23:29;;;;;;;55.67;29.05;;;2.40;99.90;;;;;;5140142;27;20254;-77
2022/12/10 01:26:00;;;;;;;60.15;32.25;;;2.50;99.90;;;;;;5131881;27;20217;-76
2022/12/10 01:28:30;;;;;;;62.45;30.63;;;2.40;99.90;;;;;;5129403;27;20173;-74
2022/12/10 01:31:02;;;;;;;53.83;29.92;;;2.40;99.90;;;;;;5134908;27;20252;-75
2022/12/10 01:33:30;;;;;;;58.53;30.42;;;2.40;99.90;;;;;;5141989;27;20201;-75
2022/12/10 01:35:57;;;;;;;57.17;31.48;;;2.40;99.90;;;;;;5141251;27;20193;-75
2022/12/10 01:38:24;;;;;;;56.22;29.50;;;2.40;99.90;;;;;;5136640;27;20177;-76
2022/12/10 01:40:51;;;;;;;61.28;34.65;;;2.40;99.90;;;;;;5144852;27;20222;-76
2022/12/10 01:43:18;;;;;;;60.55;30.17;;;2.40;99.90;;;;;;5124660;27;20202;-77
2022/12/10 01:45:47;;;;;;;54.75;29.02;;;2.50;99.90;;;;;;5131481;27;20208;-76
2022/12/10 01:48:13;;;;;;;64.47;32.85;;;2.60;99.90;;;;;;5136666;27;20186;-77
2022/12/10 01:50:42;;;;;;;62.53;33.42;;;2.50;99.90;;;;;;5135291;27;20384;-77
2022/12/10 01:53:09;;;;;;;49.83;29.45;;;2.50;99.90;;;;;;5122703;27;20212;-75
2022/12/10 01:55:44;;;;;;;52.70;30.38;;;2.60;99.90;;;;;;5118752;27;20454;-75
2022/12/10 01:58:13;;;;;;;50.58;29.15;;;2.60;99.90;;;;;;5144029;27;20177;-76
2022/12/10 02:00:50;;;;;;;54.97;31.52;;;2.60;99.90;;;;;;5136168;27;20200;-76
2022/12/10 02:03:25;;;;;;;58.58;29.67;;;2.70;99.90;;;;;;5140357;27;20201;-75
2022/12/10 02:05:58;;;;;;;57.85;31.73;;;2.60;99.90;;;;;;5144777;27;20216;-75
2022/12/10 02:08:30;;;;;;;63.75;33.90;;;2.50;99.90;;;;;;5143651;27;20184;-76
2022/12/10 02:11:06;;;;;;;52.85;30.45;;;2.40;99.90;;;;;;5126920;28;20264;-75
2022/12/10 02:13:39;;;;;;;58.05;33.80;;;2.50;99.90;;;;;;5133135;27;20276;-75
2022/12/10 02:16:14;;;;;;;55.42;28.60;;;2.40;99.90;;;;;;5121780;28;20218;-76
2022/12/10 02:18:47;;;;;;;56.95;28.08;;;2.30;99.90;;;;;;5133143;28;20190;-77
2022/12/10 02:21:20;;;;;;;66.35;33.22;;;2.40;99.90;;;;;;5135540;28;20380;-75
2022/12/10 02:23:51;;;;;;;61.90;32.15;;;2.30;99.90;;;;;;5128379;28;20219;-76
2022/12/10 02:26:24;;;;;;;55.35;29.48;;;2.50;99.90;;;;;;5129675;28;20189;-75
2022/12/10 02:29:06;;;;;;;54.20;31.05;;;2.40;99.90;;;;;;5124466;28;20281;-76
2022/12/10 02:31:34;;;;;;;58.03;31.88;;;2.40;99.90;;;;;;5120634;28;20213;-76
2022/12/10 02:34:04;;;;;;;56.50;33.33;;;2.30;99.90;;;;;;5129715;28;20244;-76
2022/12/10 02:36:38;;;;;;;60.05;32.15;;;2.30;99.90;;;;;;5131894;28;20178;-76
2022/12/10 02:39:09;;;;;;;61.47;31.38;;;2.20;99.90;;;;;;5131882;28;20192;-75
2022/12/10 02:41:43;;;;;;;51.25;31.30;;;2.20;99.90;;;;;;5140421;28;20208;-75
2022/12/10 02:44:14;;;;;;;51.83;30.05;;;2.30;99.90;;;;;;5124113;28;20214;-76
2022/12/10 02:47:03;;;;;;;64.80;32.10;;;2.30;99.90;;;;;;5116269;28;20186;-76
2022/12/10 02:49:31;;;;;;;53.47;29.50;;;2.40;99.90;;;;;;5128313;27;20178;-76
2022/12/10 02:52:06;;;;;;;56.08;31.13;;;2.40;99.90;;;;;;5145187;27;20360;-74
2022/12/10 02:54:39;;;;;;;56.63;31.63;;;2.30;99.90;;;;;;5151187;27;20203;-76
2022/12/10 02:57:23;;;;;;;52.80;28.65;;;2.40;99.90;;;;;;5132522;27;20193;-75
2022/12/10 03:00:06;;;;;;;56.35;31.50;;;2.20;99.90;;;;;;5125772;28;20208;-76
2022/12/10 03:02:42;;;;;;;56.22;29.98;;;2.20;99.90;;;;;;5136023;27;20219;-75
2022/12/10 03:05:16;;;;;;;59.03;31.30;;;2.20;99.90;;;;;;5125953;27;20190;-75
2022/12/10 03:07:50;;;;;;;58.53;30.35;;;2.30;99.90;;;;;;5134984;27;20524;-75
2022/12/10 03:10:27;;;;;;;47.95;27.20;;;2.30;99.90;;;;;;5134724;27;20182;-76
2022/12/10 03:12:58;;;;;;;50.38;27.83;;;2.40;99.90;;;;;;5140932;27;20209;-76
2022/12/10 03:15:31;;;;;;;48.17;27.05;;;2.40;99.90;;;;;;5143153;27;20193;-75
2022/12/10 03:18:02;;;;;;;45.80;27.73;;;2.40;99.90;;;;;;5145530;27;20193;-75
2022/12/10 03:20:32;;;;;;;47.78;26.30;;;2.50;99.90;;;;;;5139795;27;20182;-76
2022/12/10 03:23:00;;;;;;;48.03;27.17;;;2.40;99.90;;;;;;5132174;27;20222;-76
2022/12/10 03:25:31;;;;;;;48.90;27.60;;;2.40;99.90;;;;;;5120981;28;20209;-74
2022/12/10 03:28:00;;;;;;;50.70;28.30;;;2.40;99.90;;;;;;5131417;27;20193;-75
2022/12/10 03:30:31;;;;;;;49.28;29.23;;;2.40;99.90;;;;;;5128261;27;20194;-75
2022/12/10 03:32:58;;;;;;;54.08;30.95;;;2.40;99.90;;;;;;5135692;27;20214;-76
2022/12/10 03:35:26;;;;;;;46.28;27.63;;;2.50;99.90;;;;;;5137470;27;20186;-75
2022/12/10 03:37:53;;;;;;;45.80;26.90;;;2.50;99.90;;;;;;5130230;27;20231;-76
2022/12/10 03:40:23;;;;;;;48.15;30.20;;;2.50;99.90;;;;;;5137411;27;20181;-75
2022/12/10 03:42:50;;;;;;;55.67;28.60;;;2.50;99.90;;;;;;5130616;27;20185;-76
2022/12/10 03:45:17;;;;;;;47.78;28.38;;;2.40;99.90;;;;;;5132562;27;20257;-75
2022/12/10 03:47:46;;;;;;;48.60;30.95;;;2.30;99.90;;;;;;5137455;27;20190;-76
2022/12/10 03:50:13;;;;;;;55.65;28.73;;;2.30;99.90;;;;;;5146216;27;20216;-75
2022/12/10 03:52:40;;;;;;;57.92;32.13;;;2.30;99.90;;;;;;5142575;27;20215;-76
2022/12/10 03:55:09;;;;;;;48.70;29.48;;;2.20;99.90;;;;;;5133902;27;20194;-75
2022/12/10 03:57:36;;;;;;;51.42;29.38;;;2.30;99.90;;;;;;5136453;27;20184;-76
2022/12/10 04:00:05;;;;;;;51.85;29.75;;;2.30;99.90;;;;;;5138993;27;20185;-76
2022/12/10 04:02:33;;;;;;;59.15;32.70;;;2.30;99.90;;;;;;5132909;28;20188;-76
2022/12/10 04:05:01;;;;;;;48.50;30.45;;;2.40;99.90;;;;;;5135801;27;20200;-75
2022/12/10 04:07:28;;;;;;;51.20;27.98;;;2.30;99.90;;;;;;5132978;28;20408;-75
2022/12/10 04:09:55;;;;;;;44.15;25.05;;;2.30;99.90;;;;;;5135390;27;20200;-76
2022/12/10 04:12:22;;;;;;;49.45;29.65;;;2.40;99.90;;;;;;5133006;27;20345;-76
2022/12/10 04:17:34;;;;;;;49.17;30.58;;;2.40;99.90;;;;;;5140109;27;20188;-75
2022/12/10 04:20:02;;;;;;;51.40;27.02;;;2.30;99.90;;;;;;5139775;27;20192;-74
2022/12/10 04:27:58;;;;;;;42.92;25.55;;;2.40;99.90;;;;;;5129259;27;20210;-76
2022/12/10 04:30:25;;;;;;;49.50;31.25;;;2.40;99.90;;;;;;5150370;27;20185;-76
2022/12/10 04:32:52;;;;;;;35.92;22.88;;;2.40;99.90;;;;;;5138749;27;20215;-76
2022/12/10 04:35:20;;;;;;;47.47;29.23;;;2.40;99.90;;;;;;5140760;27;20177;-76
2022/12/10 04:37:47;;;;;;;37.20;24.38;;;2.30;99.90;;;;;;5139163;27;20190;-75
2022/12/10 04:40:14;;;;;;;39.58;24.20;;;2.40;99.90;;;;;;5133181;27;20182;-75
2022/12/10 04:42:41;;;;;;;41.78;25.88;;;2.40;99.90;;;;;;5140611;27;20240;-75
2022/12/10 04:45:09;;;;;;;42.05;24.50;;;2.40;99.90;;;;;;5137881;27;20208;-75
2022/12/10 04:47:36;;;;;;;37.17;22.45;;;2.40;99.90;;;;;;5145752;27;20188;-75
2022/12/10 04:50:03;;;;;;;33.60;23.15;;;2.40;99.90;;;;;;5138244;27;20190;-76
2022/12/10 04:52:32;;;;;;;42.30;25.65;;;2.40;99.90;;;;;;5131888;28;20186;-75
2022/12/10 04:54:58;;;;;;;43.90;26.60;;;2.40;99.90;;;;;;5127059;27;20205;-75
2022/12/10 04:57:32;;;;;;;38.92;25.73;;;2.40;99.90;;;;;;5127051;27;20206;-76
2022/12/10 04:59:59;;;;;;;41.47;25.48;;;2.40;99.90;;;;;;5131403;27;20304;-75
2022/12/10 05:05:39;;;;;;;43.25;27.67;;;2.40;99.90;;;;;;5134252;27;20194;-75
2022/12/10 05:08:09;;;;;;;43.95;26.80;;;2.30;99.90;;;;;;5138671;27;20191;-75
2022/12/10 05:10:37;;;;;;;43.38;26.08;;;2.30;99.90;;;;;;5133424;27;20182;-75
2022/12/10 05:13:04;;;;;;;41.20;25.83;;;2.30;99.90;;;;;;5124589;28;20201;-75
2022/12/10 05:15:30;;;;;;;42.28;27.10;;;2.40;99.90;;;;;;5123893;27;20186;-74
2022/12/10 05:17:58;;;;;;;40.33;23.75;;;2.60;99.90;;;;;;5133996;27;20198;-75
2022/12/10 05:20:25;;;;;;;34.53;22.33;;;2.50;99.90;;;;;;5144531;27;20178;-75
2022/12/10 05:25:52;;;;;;;32.67;22.35;;;2.50;99.90;;;;;;5129526;27;20199;-75
2022/12/10 05:28:19;;;;;;;26.77;19.92;;;2.60;99.90;;;;;;5132372;27;20191;-75
2022/12/10 05:30:46;;;;;;;34.03;21.67;;;2.60;99.90;;;;;;5137681;27;20216;-75
2022/12/10 05:33:13;;;;;;;30.70;21.50;;;2.50;99.90;;;;;;5132767;27;20204;-75
2022/12/10 05:35:40;;;;;;;37.22;24.10;;;2.50;99.90;;;;;;5127644;27;20193;-76
2022/12/10 05:38:07;;;;;;;36.72;22.60;;;2.60;99.90;;;;;;5131232;27;20276;-76
2022/12/10 05:40:35;;;;;;;35.90;23.73;;;2.70;99.90;;;;;;5137714;27;20412;-75
2022/12/10 05:43:04;;;;;;;43.85;27.52;;;2.60;99.90;;;;;;5129724;27;20253;-75
2022/12/10 05:45:33;;;;;;;40.10;25.05;;;2.50;99.90;;;;;;5129082;27;20216;-75
2022/12/10 05:48:00;;;;;;;40.10;23.13;;;2.50;99.90;;;;;;5126912;28;20190;-74
2022/12/10 05:50:27;;;;;;;38.45;23.77;;;2.50;99.90;;;;;;5140356;27;20180;-75
2022/12/10 05:52:54;;;;;;;46.40;29.33;;;2.50;99.90;;;;;;5134609;27;20198;-74
2022/12/10 05:55:21;;;;;;;40.85;24.58;;;2.50;99.90;;;;;;5137778;27;20211;-74
2022/12/10 05:57:48;;;;;;;48.13;27.17;;;2.30;99.90;;;;;;5134359;27;20216;-75
2022/12/10 06:00:17;;;;;;;42.50;26.52;;;2.50;99.90;;;;;;5142081;27;20314;-75
2022/12/10 06:02:44;;;;;;;40.38;23.35;;;2.50;99.90;;;;;;5143565;27;20219;-75
2022/12/10 06:05:11;;;;;;;29.48;18.20;;;2.40;99.90;;;;;;5143684;27;20185;-76
2022/12/10 06:07:38;;;;;;;32.13;19.58;;;2.30;99.90;;;;;;5138682;27;20197;-75
2022/12/10 06:10:06;;;;;;;34.05;20.55;;;2.40;99.90;;;;;;5141964;27;20180;-75
2022/12/10 06:12:33;;;;;;;30.25;19.40;;;2.40;99.90;;;;;;5141809;27;20315;-75
2022/12/10 06:15:00;;;;;;;37.03;23.00;;;2.50;99.90;;;;;;5135885;28;20240;-76
2022/12/10 06:17:29;;;;;;;38.38;22.83;;;2.50;99.90;;;;;;5138483;28;20180;-77
2022/12/10 06:19:56;;;;;;;33.60;21.05;;;2.40;99.90;;;;;;5145418;27;20193;-77
2022/12/10 06:22:23;;;;;;;35.20;23.45;;;2.50;99.90;;;;;;5139785;28;20181;-73
2022/12/10 06:24:50;;;;;;;37.65;22.63;;;2.60;99.90;;;;;;5147070;28;20229;-75
2022/12/10 06:27:17;;;;;;;33.22;20.38;;;2.70;99.90;;;;;;5141021;27;20235;-76
2022/12/10 06:29:45;;;;;;;29.77;18.73;;;2.60;99.90;;;;;;5136122;28;20223;-75
2022/12/10 06:32:12;;;;;;;32.50;20.05;;;2.60;99.90;;;;;;5132654;27;20182;-76
2022/12/10 06:34:40;;;;;;;34.58;20.15;;;2.70;99.90;;;;;;5138727;28;20232;-74
2022/12/10 06:37:07;;;;;;;41.58;24.35;;;2.60;99.90;;;;;;5141489;28;20419;-74
2022/12/10 06:39:34;;;;;;;45.13;24.73;;;2.60;99.90;;;;;;5140086;28;20184;-78
2022/12/10 06:42:01;;;;;;;35.63;23.35;;;2.60;99.90;;;;;;5137939;28;20415;-75
2022/12/10 06:44:28;;;;;;;42.22;25.10;;;2.60;99.90;;;;;;5140574;28;20260;-74
2022/12/10 06:46:55;;;;;;;40.83;24.48;;;2.60;99.90;;;;;;5131248;28;20202;-75
2022/12/10 06:49:22;;;;;;;38.00;24.35;;;2.60;99.90;;;;;;5127940;28;20181;-76
2022/12/10 06:51:51;;;;;;;40.55;24.10;;;2.60;99.90;;;;;;5131917;28;20224;-74
2022/12/10 06:54:18;;;;;;;48.50;24.90;;;2.50;99.90;;;;;;5136121;28;20233;-75
2022/12/10 06:56:45;;;;;;;48.22;26.85;;;2.50;99.90;;;;;;5126896;28;20205;-76
2022/12/10 06:59:13;;;;;;;48.35;27.38;;;2.60;99.90;;;;;;5134360;28;20177;-75
2022/12/10 07:01:40;;;;;;;39.15;25.48;;;2.50;99.90;;;;;;5134226;28;20204;-74
2022/12/10 07:04:08;;;;;;;44.85;25.55;;;2.50;99.90;;;;;;5146397;28;20375;-75
2022/12/10 07:06:35;;;;;;;47.25;26.92;;;2.40;99.90;;;;;;5134794;28;20208;-75
2022/12/10 07:09:04;;;;;;;51.85;28.17;;;2.40;99.90;;;;;;5143098;28;20177;-75
2022/12/10 07:11:31;;;;;;;49.55;28.60;;;2.50;99.90;;;;;;5134326;27;20411;-75
2022/12/10 07:13:59;;;;;;;49.15;26.48;;;2.40;99.90;;;;;;5146449;28;20220;-74
2022/12/10 07:16:28;;;;;;;54.85;29.33;;;2.50;99.90;;;;;;5141665;28;20190;-75
2022/12/10 07:18:57;;;;;;;49.95;28.88;;;2.50;99.90;;;;;;5132574;27;20272;-75
2022/12/10 07:21:26;;;;;;;57.55;28.95;;;2.50;99.90;;;;;;5144311;27;20177;-73
2022/12/10 07:23:54;;;;;;;49.22;29.50;;;2.50;99.90;;;;;;5139703;28;20201;-75
2022/12/10 07:26:23;;;;;;;48.58;30.13;;;2.60;99.90;;;;;;5138664;28;20254;-76
2022/12/10 07:28:50;;;;;;;53.25;27.75;;;2.50;99.90;;;;;;5140197;28;20189;-76
2022/12/10 07:31:17;;;;;;;54.00;30.58;;;2.40;99.90;;;;;;5137848;27;20178;-75
2022/12/10 07:33:44;;;;;;;49.03;28.13;;;2.30;99.90;;;;;;5148168;27;20204;-75
2022/12/10 07:36:14;;;;;;;38.25;25.95;;;2.30;99.90;;;;;;5137296;27;20189;-75
2022/12/10 07:38:42;;;;;;;42.25;26.40;;;2.30;99.90;;;;;;5136355;27;20191;-75
2022/12/10 07:41:11;;;;;;;54.83;29.83;;;2.30;99.90;;;;;;5132103;27;20174;-73
2022/12/10 07:43:43;;;;;;;40.20;27.00;;;2.40;99.90;;;;;;5143407;27;20242;-73
2022/12/10 07:46:12;;;;;;;43.97;25.45;;;2.50;99.90;;;;;;5135447;27;20193;-73
2022/12/10 07:48:41;;;;;;;36.00;23.88;;;2.50;99.90;;;;;;5136997;27;20177;-73
2022/12/10 07:51:08;;;;;;;30.40;19.92;;;2.50;99.90;;;;;;5125579;28;20243;-73
2022/12/10 07:53:35;;;;;;;24.42;18.38;;;2.60;99.90;;;;;;5130156;27;20201;-73
2022/12/10 07:56:03;;;;;;;29.15;19.15;;;2.70;99.90;;;;;;5143144;27;20186;-74
2022/12/10 07:58:31;;;;;;;42.20;25.58;;;2.70;99.90;;;;;;5136390;27;20184;-74
2022/12/10 08:00:59;;;;;;;40.17;23.70;;;2.80;99.90;;;;;;5134741;27;20251;-74
2022/12/10 08:03:26;;;;;;;44.10;25.23;;;2.80;99.90;;;;;;5133711;27;20275;-75
2022/12/10 08:06:02;;;;;;;43.42;25.48;;;2.70;99.90;;;;;;5140784;27;20215;-76
2022/12/10 08:08:29;;;;;;;39.92;24.50;;;2.60;99.90;;;;;;5127209;28;20211;-75
2022/12/10 08:10:56;;;;;;;40.60;24.85;;;2.60;99.90;;;;;;5130916;27;20233;-76
2022/12/10 08:13:23;;;;;;;37.35;23.27;;;2.60;99.90;;;;;;5127628;28;20198;-75
2022/12/10 08:15:50;;;;;;;43.60;25.58;;;2.60;99.90;;;;;;5133643;27;20186;-77
2022/12/10 08:18:18;;;;;;;53.90;27.83;;;2.60;99.90;;;;;;5129903;27;20181;-76
2022/12/10 08:20:56;;;;;;;40.45;25.27;;;2.70;99.90;;;;;;5132215;28;20181;-76
2022/12/10 08:23:23;;;;;;;43.85;26.65;;;2.70;99.90;;;;;;5132052;28;20269;-77
2022/12/10 08:25:55;;;;;;;50.38;28.17;;;2.60;99.90;;;;;;5138956;27;20198;-78
2022/12/10 08:28:21;;;;;;;50.17;29.08;;;2.90;99.90;;;;;;5129850;27;20198;-77
2022/12/10 08:30:49;;;;;;;41.45;26.42;;;3.40;99.90;;;;;;5118735;28;20205;-76
2022/12/10 08:33:17;;;;;;;38.90;27.35;;;3.40;99.90;;;;;;5128418;27;20200;-79
2022/12/10 08:35:44;;;;;;;43.15;24.55;;;3.40;99.90;;;;;;5144729;27;20251;-76
2022/12/10 08:38:11;;;;;;;42.10;23.83;;;3.80;99.90;;;;;;5131839;27;20177;-78
2022/12/10 08:40:40;;;;;;;37.63;23.00;;;3.80;99.90;;;;;;5130483;28;20197;-78
2022/12/10 08:43:07;;;;;;;37.47;24.52;;;4.00;99.90;;;;;;5131241;28;20229;-78
2022/12/10 08:45:34;;;;;;;45.22;26.92;;;4.20;99.90;;;;;;5137328;27;20230;-76
2022/12/10 08:48:04;;;;;;;48.05;27.20;;;4.20;99.90;;;;;;5133025;27;20264;-77
2022/12/10 08:50:33;;;;;;;52.30;28.08;;;4.10;99.90;;;;;;5138320;27;20222;-77
2022/12/10 08:53:01;;;;;;;45.40;27.05;;;3.90;99.90;;;;;;5131149;28;20370;-78
2022/12/10 08:55:28;;;;;;;46.22;29.42;;;3.80;99.90;;;;;;5123317;27;20192;-78
2022/12/10 08:57:55;;;;;;;48.88;29.98;;;3.70;99.90;;;;;;5120541;28;20345;-77
2022/12/10 09:00:22;;;;;;;47.92;28.65;;;3.80;99.90;;;;;;5132054;27;20187;-77
2022/12/10 09:02:49;;;;;;;53.13;29.63;;;4.10;99.90;;;;;;5138644;27;20215;-79
2022/12/10 09:05:17;;;;;;;47.00;27.77;;;4.30;99.90;;;;;;5117208;27;20193;-78
2022/12/10 09:07:45;;;;;;;43.67;25.88;;;4.60;99.90;;;;;;5128319;27;20203;-79
2022/12/10 09:10:13;;;;;;;43.33;24.02;;;4.70;99.90;;;;;;5139898;27;20186;-79
2022/12/10 09:12:40;;;;;;;46.35;24.90;;;4.60;99.90;;;;;;5144746;27;20185;-77
2022/12/10 09:15:10;;;;;;;39.95;24.95;;;4.70;99.90;;;;;;5141234;27;20193;-76
2022/12/10 09:17:38;;;;;;;41.08;24.13;;;4.90;99.90;;;;;;5130957;28;20235;-75
2022/12/10 09:20:06;;;;;;;39.50;25.52;;;5.10;99.90;;;;;;5122442;27;20260;-77
2022/12/10 09:22:36;;;;;;;40.08;25.25;;;5.10;99.90;;;;;;5121457;28;20246;-75
2022/12/10 09:25:05;;;;;;;38.33;24.25;;;4.90;99.90;;;;;;5124563;27;20183;-77
2022/12/10 09:27:33;;;;;;;41.60;23.10;;;4.80;99.90;;;;;;5125468;27;20221;-78
2022/12/10 09:30:00;;;;;;;33.50;19.88;;;4.60;99.90;;;;;;5119942;28;20178;-75
2022/12/10 09:32:27;;;;;;;31.52;18.30;;;4.40;99.90;;;;;;5117200;28;20178;-74
2022/12/10 09:34:54;;;;;;;34.00;20.65;;;4.00;99.90;;;;;;5131640;27;20248;-73
2022/12/10 09:37:21;;;;;;;37.97;23.02;;;4.00;99.90;;;;;;5125126;27;20229;-74
2022/12/10 09:39:49;;;;;;;37.67;22.38;;;3.80;99.90;;;;;;5126807;27;20181;-74
2022/12/10 09:42:33;;;;;;;35.80;22.17;;;3.80;99.90;;;;;;5131826;27;20178;-76
2022/12/10 09:45:06;;;;;;;37.15;21.17;;;3.60;99.90;;;;;;5122332;27;20190;-75
2022/12/10 09:47:41;;;;;;;34.40;21.65;;;3.50;99.90;;;;;;5135325;27;20201;-76
2022/12/10 09:50:17;;;;;;;31.30;20.35;;;3.40;99.90;;;;;;5133080;27;20211;-75
2022/12/10 09:52:47;;;;;;;29.73;19.55;;;3.30;99.90;;;;;;5135584;27;20177;-75
2022/12/10 09:55:17;;;;;;;28.38;18.77;;;3.10;99.90;;;;;;5133257;27;20189;-75
2022/12/10 09:57:49;;;;;;;31.83;19.92;;;3.40;99.90;;;;;;5134626;27;20204;-76
2022/12/10 10:00:24;;;;;;;36.45;20.60;;;3.40;99.90;;;;;;5118903;28;20186;-75
2022/12/10 10:02:51;;;;;;;42.35;22.30;;;3.40;99.90;;;;;;5129661;27;20461;-75
2022/12/10 10:05:22;;;;;;;37.17;21.52;;;3.30;99.90;;;;;;5142402;27;20196;-77
2022/12/10 10:07:52;;;;;;;34.15;21.80;;;3.20;99.90;;;;;;5131781;27;20279;-76
2022/12/10 10:10:25;;;;;;;33.67;21.10;;;3.10;99.90;;;;;;5133485;27;20220;-75
2022/12/10 10:12:56;;;;;;;36.45;20.27;;;3.20;99.90;;;;;;5125590;27;20186;-75
2022/12/10 10:15:30;;;;;;;32.28;21.40;;;3.20;99.90;;;;;;5137188;27;20187;-75
2022/12/10 10:18:02;;;;;;;31.02;20.13;;;3.30;99.90;;;;;;5133775;28;20184;-74
2022/12/10 10:20:31;;;;;;;36.78;21.40;;;3.30;99.90;;;;;;5134184;28;20259;-76
2022/12/10 10:23:00;;;;;;;31.73;19.42;;;3.30;99.90;;;;;;5134455;28;20279;-75
2022/12/10 10:25:28;;;;;;;23.75;14.23;;;3.40;99.90;;;;;;5131718;28;20176;-75
2022/12/10 10:27:57;;;;;;;25.05;13.45;;;3.50;99.90;;;;;;5129449;28;20197;-76
2022/12/10 10:30:25;;;;;;;27.15;17.10;;;3.50;99.90;;;;;;5130677;28;20204;-75
2022/12/10 10:32:53;;;;;;;33.60;19.38;;;3.60;99.90;;;;;;5119980;28;20182;-74
2022/12/10 10:35:25;;;;;;;24.33;16.88;;;3.70;99.90;;;;;;5125258;28;20446;-73
2022/12/10 10:37:58;;;;;;;30.45;17.05;;;3.70;99.90;;;;;;5124556;28;20301;-72
2022/12/10 10:40:30;;;;;;;34.33;20.98;;;3.70;99.90;;;;;;5124485;28;20237;-75
2022/12/10 10:43:00;;;;;;;35.13;19.35;;;3.60;99.90;;;;;;5131727;28;20205;-76
2022/12/10 10:45:42;;;;;;;30.27;18.50;;;3.70;99.90;;;;;;5129176;28;20188;-75
2022/12/10 10:48:14;;;;;;;33.85;18.90;;;3.70;99.90;;;;;;5134749;28;20211;-76
2022/12/10 10:50:43;;;;;;;24.90;16.60;;;3.80;99.90;;;;;;5126942;28;20186;-75
2022/12/10 10:53:30;;;;;;;29.50;18.60;;;3.70;99.90;;;;;;5127257;28;20453;-75
2022/12/10 10:56:00;;;;;;;30.40;19.33;;;3.80;99.90;;;;;;5133540;28;20216;-77
2022/12/10 10:58:32;;;;;;;24.40;15.25;;;3.90;99.90;;;;;;5138633;27;20306;-79
2022/12/10 11:01:01;;;;;;;24.13;15.43;;;3.70;99.90;;;;;;5128451;28;20185;-78
2022/12/10 11:03:30;;;;;;;21.83;12.80;;;3.70;99.90;;;;;;5129804;28;20205;-78
2022/12/10 11:05:59;;;;;;;28.75;16.83;;;3.70;99.90;;;;;;5136129;27;20251;-78
2022/12/10 11:08:29;;;;;;;31.83;18.80;;;3.80;99.90;;;;;;5131466;28;20276;-78
2022/12/10 11:11:04;;;;;;;28.73;17.42;;;3.70;99.90;;;;;;5135525;27;20193;-77
2022/12/10 11:13:35;;;;;;;32.75;20.10;;;3.70;99.90;;;;;;5145639;27;20201;-78
2022/12/10 11:16:11;;;;;;;33.20;19.70;;;3.70;99.90;;;;;;5152309;27;20203;-77
2022/12/10 11:18:41;;;;;;;31.05;17.52;;;3.80;99.90;;;;;;5138755;27;20354;-79
2022/12/10 11:21:18;;;;;;;34.83;20.02;;;3.90;99.90;;;;;;5121995;28;20186;-79
2022/12/10 11:23:49;;;;;;;21.30;15.52;;;3.90;99.90;;;;;;5120523;27;20210;-78
2022/12/10 11:26:49;;;;;;;20.25;13.55;;;4.10;99.90;;;;;;5131383;27;20187;-77
2022/12/10 11:29:33;;;;;;;22.52;14.57;;;4.20;99.90;;;;;;5134166;27;20187;-78
2022/12/10 11:32:15;;;;;;;22.38;14.35;;;4.10;99.90;;;;;;5128745;27;20193;-77
2022/12/10 11:34:53;;;;;;;24.88;16.27;;;4.00;99.90;;;;;;5114468;28;20444;-77
2022/12/10 11:37:29;;;;;;;30.73;18.38;;;4.00;99.90;;;;;;5128066;27;20185;-77
2022/12/10 11:40:19;;;;;;;34.55;20.05;;;4.00;99.90;;;;;;5142595;27;20210;-77
2022/12/10 11:42:55;;;;;;;27.73;16.90;;;3.80;99.90;;;;;;5142448;27;20192;-79
2022/12/10 11:45:33;;;;;;;19.25;14.15;;;3.80;99.90;;;;;;5136380;27;20186;-78
2022/12/10 11:48:12;;;;;;;23.30;15.60;;;3.80;99.90;;;;;;5140688;27;20205;-77
2022/12/10 11:50:43;;;;;;;25.60;16.13;;;3.70;99.90;;;;;;5146170;27;20208;-77
2022/12/10 11:53:31;;;;;;;24.10;13.55;;;3.90;99.90;;;;;;5146165;27;20224;-78
2022/12/10 11:56:06;;;;;;;24.95;15.23;;;3.70;99.90;;;;;;5135469;27;20182;-77
2022/12/10 11:58:49;;;;;;;16.25;11.18;;;3.60;99.90;;;;;;5138107;27;20312;-80
2022/12/10 12:01:29;;;;;;;18.35;11.30;;;3.50;99.90;;;;;;5132398;27;20301;-78
2022/12/10 12:04:12;;;;;;;19.05;12.60;;;3.40;99.90;;;;;;5137023;27;20231;-78
2022/12/10 12:06:54;;;;;;;15.77;11.88;;;3.50;99.90;;;;;;5142846;27;20317;-79
2022/12/10 12:09:30;;;;;;;23.35;12.52;;;3.40;99.90;;;;;;5135774;27;20208;-77
2022/12/10 12:12:12;;;;;;;18.08;12.85;;;3.40;99.90;;;;;;5136991;27;20392;-76
2022/12/10 12:14:45;;;;;;;22.52;13.20;;;3.60;99.90;;;;;;5147975;27;20197;-78
2022/12/10 12:17:20;;;;;;;20.80;12.68;;;3.80;99.90;;;;;;5134843;27;20224;-78
2022/12/10 12:19:50;;;;;;;16.45;10.95;;;3.70;99.90;;;;;;5135898;27;20181;-78
2022/12/10 12:22:24;;;;;;;17.38;10.32;;;3.70;99.90;;;;;;5138959;27;20186;-78
2022/12/10 12:24:55;;;;;;;19.60;11.50;;;3.80;99.90;;;;;;5151140;27;20201;-78
2022/12/10 12:27:28;;;;;;;16.52;11.45;;;3.70;99.90;;;;;;5122395;27;20473;-77
2022/12/10 12:30:07;;;;;;;18.13;11.68;;;3.80;99.90;;;;;;5122990;27;20193;-78
2022/12/10 12:32:47;;;;;;;20.77;11.68;;;3.60;99.90;;;;;;5119511;27;20248;-79
2022/12/10 12:35:21;;;;;;;21.73;14.07;;;3.50;99.90;;;;;;5123573;28;20226;-78
2022/12/10 12:37:55;;;;;;;25.17;15.55;;;3.50;99.90;;;;;;5131586;28;20177;-78
2022/12/10 12:40:29;;;;;;;21.10;13.63;;;3.60;99.90;;;;;;5121098;28;20184;-79
2022/12/10 12:43:01;;;;;;;21.35;12.95;;;3.60;99.90;;;;;;5121625;27;20204;-80
2022/12/10 12:45:34;;;;;;;21.33;14.43;;;3.70;99.90;;;;;;5130615;28;20178;-78
2022/12/10 12:48:15;;;;;;;22.73;12.38;;;3.80;99.90;;;;;;5133313;27;20197;-78
2022/12/10 12:50:45;;;;;;;25.23;14.52;;;3.80;99.90;;;;;;5127058;28;20217;-80
2022/12/10 12:53:15;;;;;;;24.67;14.13;;;3.80;99.90;;;;;;5131260;28;20324;-79
2022/12/10 12:55:50;;;;;;;19.40;14.68;;;3.80;99.90;;;;;;5140641;27;20243;-79
2022/12/10 12:58:25;;;;;;;27.17;16.42;;;3.60;99.90;;;;;;5126120;27;20388;-78
2022/12/10 13:00:58;;;;;;;23.80;15.57;;;3.50;99.90;;;;;;5131779;27;20182;-78
2022/12/10 13:03:42;;;;;;;25.38;15.43;;;3.50;99.90;;;;;;5129692;28;20211;-76
2022/12/10 13:06:15;;;;;;;25.42;15.80;;;3.30;99.90;;;;;;5119231;27;20304;-78